sensor_id;sensor_type;location;lat;lon;timestamp;temperature;humidity
20973;DHT22;10645;52.370;13.314;2024-03-06T00:02:05;-2.30;99.90
20973;DHT22;10645;52.370;13.314;2024-03-06T00:04:31;-2.30;99.90
20973;DHT22;10645;52.370;13.314;2024-03-06T00:06:58;-2.30;99.90
20973;DHT22;10645;52.370;13.314;2024-03-06T00:09:24;-2.20;99.90
20973;DHT22;10645;52.370;13.314;2024-03-06T00:11:53;-2.20;99.90
20973;DHT22;10645;52.370;13.314;2024-03-06T00:14:19;-2.20;99.90
20973;DHT22;10645;52.370;13.314;2024-03-06T00:16:48;-2.10;99.90
20973;DHT22;10645;52.370;13.314;2024-03-06T00:19:16;-2.20;99.90
20973;DHT22;10645;52.370;13.314;2024-03-06T00:21:42;-2.20;99.90
20973;DHT22;10645;52.370;13.314;2024-03-06T00:24:11;-2.20;99.90
20973;DHT22;10645;52.370;13.314;2024-03-06T00:26:39;-2.30;99.90
20973;DHT22;10645;52.370;13.314;2024-03-06T00:29:05;-2.30;99.90
20973;DHT22;10645;52.370;13.314;2024-03-06T00:31:31;-2.30;99.90
20973;DHT22;10645;52.370;13.314;2024-03-06T00:33:58;-2.30;99.90
20973;DHT22;10645;52.370;13.314;2024-03-06T00:36:24;-2.40;99.90
20973;DHT22;10645;52.370;13.314;2024-03-06T00:38:50;-2.40;99.90
20973;DHT22;10645;52.370;13.314;2024-03-06T00:41:16;-2.40;99.90
20973;DHT22;10645;52.370;13.314;2024-03-06T00:43:43;-2.40;99.90
20973;DHT22;10645;52.370;13.314;2024-03-06T00:46:09;-2.40;99.90
20973;DHT22;10645;52.370;13.314;2024-03-06T00:48:35;-2.40;99.90
20973;DHT22;10645;52.370;13.314;2024-03-06T00:51:01;-2.40;99.90
20973;DHT22;10645;52.370;13.314;2024-03-06T00:53:27;-2.50;99.90
20973;DHT22;10645;52.370;13.314;2024-03-06T00:55:53;-2.50;99.90
20973;DHT22;10645;52.370;13.314;2024-03-06T00:58:19;-2.50;99.90
20973;DHT22;10645;52.370;13.314;2024-03-06T01:00:45;-2.50;99.90
20973;DHT22;10645;52.370;13.314;2024-03-06T01:03:11;-2.50;99.90
20973;DHT22;10645;52.370;13.314;2024-03-06T01:05:37;-2.50;99.90
20973;DHT22;10645;52.370;13.314;2024-03-06T01:08:04;-2.50;99.90
20973;DHT22;10645;52.370;13.314;2024-03-06T01:10:30;-2.50;99.90
20973;DHT22;10645;52.370;13.314;2024-03-06T01:12:56;-2.50;99.90
20973;DHT22;10645;52.370;13.314;2024-03-06T01:15:23;-2.50;99.90
20973;DHT22;10645;52.370;13.314;2024-03-06T01:17:49;-2.50;99.90
20973;DHT22;10645;52.370;13.314;2024-03-06T01:20:16;-2.60;99.90
20973;DHT22;10645;52.370;13.314;2024-03-06T01:22:42;-2.60;99.90
20973;DHT22;10645;52.370;13.314;2024-03-06T01:25:08;-2.70;99.90
20973;DHT22;10645;52.370;13.314;2024-03-06T01:27:35;-2.70;99.90
20973;DHT22;10645;52.370;13.314;2024-03-06T01:30:01;-2.70;99.90
20973;DHT22;10645;52.370;13.314;2024-03-06T01:32:27;-2.70;99.90
20973;DHT22;10645;52.370;13.314;2024-03-06T01:34:53;-2.70;99.90
20973;DHT22;10645;52.370;13.314;2024-03-06T01:37:20;-2.70;99.90
20973;DHT22;10645;52.370;13.314;2024-03-06T01:39:46;-2.70;99.90
20973;DHT22;10645;52.370;13.314;2024-03-06T01:42:12;-2.70;99.90
20973;DHT22;10645;52.370;13.314;2024-03-06T01:44:38;-2.70;99.90
20973;DHT22;10645;52.370;13.314;2024-03-06T01:47:04;-2.80;99.90
20973;DHT22;10645;52.370;13.314;2024-03-06T01:49:31;-2.80;99.90
20973;DHT22;10645;52.370;13.314;2024-03-06T01:51:57;-2.80;99.90
20973;DHT22;10645;52.370;13.314;2024-03-06T01:54:25;-2.70;99.90
20973;DHT22;10645;52.370;13.314;2024-03-06T01:56:52;-2.70;99.90
20973;DHT22;10645;52.370;13.314;2024-03-06T01:59:21;-2.70;99.90
20973;DHT22;10645;52.370;13.314;2024-03-06T02:01:47;-2.70;99.90
20973;DHT22;10645;52.370;13.314;2024-03-06T02:04:13;-2.70;99.90
20973;DHT22;10645;52.370;13.314;2024-03-06T02:06:40;-2.60;99.90
20973;DHT22;10645;52.370;13.314;2024-03-06T02:09:06;-2.70;99.90
20973;DHT22;10645;52.370;13.314;2024-03-06T02:11:38;-2.70;99.90
20973;DHT22;10645;52.370;13.314;2024-03-06T02:14:04;-2.80;99.90
20973;DHT22;10645;52.370;13.314;2024-03-06T02:16:32;-2.80;99.90
20973;DHT22;10645;52.370;13.314;2024-03-06T02:18:58;-2.80;99.90
20973;DHT22;10645;52.370;13.314;2024-03-06T02:21:25;-2.80;99.90
20973;DHT22;10645;52.370;13.314;2024-03-06T02:23:51;-2.70;99.90
20973;DHT22;10645;52.370;13.314;2024-03-06T02:26:18;-2.70;99.90
20973;DHT22;10645;52.370;13.314;2024-03-06T02:28:48;-2.70;99.90
20973;DHT22;10645;52.370;13.314;2024-03-06T02:31:16;-2.70;99.90
20973;DHT22;10645;52.370;13.314;2024-03-06T02:33:47;-2.80;99.90
20973;DHT22;10645;52.370;13.314;2024-03-06T02:36:17;-2.70;99.90
20973;DHT22;10645;52.370;13.314;2024-03-06T02:38:44;-2.70;99.90
20973;DHT22;10645;52.370;13.314;2024-03-06T02:41:10;-2.70;99.90
20973;DHT22;10645;52.370;13.314;2024-03-06T02:43:37;-2.70;99.90
20973;DHT22;10645;52.370;13.314;2024-03-06T02:46:03;-2.60;99.90
20973;DHT22;10645;52.370;13.314;2024-03-06T02:48:30;-2.60;99.90
20973;DHT22;10645;52.370;13.314;2024-03-06T02:50:56;-2.50;99.90
20973;DHT22;10645;52.370;13.314;2024-03-06T02:53:23;-2.50;99.90
20973;DHT22;10645;52.370;13.314;2024-03-06T02:55:49;-2.50;99.90
20973;DHT22;10645;52.370;13.314;2024-03-06T02:58:15;-2.40;99.90
20973;DHT22;10645;52.370;13.314;2024-03-06T03:00:44;-2.40;99.90
20973;DHT22;10645;52.370;13.314;2024-03-06T03:03:10;-2.40;99.90
20973;DHT22;10645;52.370;13.314;2024-03-06T03:05:40;-2.40;99.90
20973;DHT22;10645;52.370;13.314;2024-03-06T03:08:06;-2.40;99.90
20973;DHT22;10645;52.370;13.314;2024-03-06T03:10:32;-2.50;99.90
20973;DHT22;10645;52.370;13.314;2024-03-06T03:13:01;-2.60;99.90
20973;DHT22;10645;52.370;13.314;2024-03-06T03:15:27;-2.60;99.90
20973;DHT22;10645;52.370;13.314;2024-03-06T03:17:54;-2.70;99.90
20973;DHT22;10645;52.370;13.314;2024-03-06T03:20:20;-2.70;99.90
20973;DHT22;10645;52.370;13.314;2024-03-06T03:22:46;-2.70;99.90
20973;DHT22;10645;52.370;13.314;2024-03-06T03:25:13;-2.80;99.90
20973;DHT22;10645;52.370;13.314;2024-03-06T03:27:40;-2.80;99.90
20973;DHT22;10645;52.370;13.314;2024-03-06T03:30:10;-2.70;99.90
20973;DHT22;10645;52.370;13.314;2024-03-06T03:32:36;-2.70;99.90
20973;DHT22;10645;52.370;13.314;2024-03-06T03:35:07;-2.60;99.90
20973;DHT22;10645;52.370;13.314;2024-03-06T03:37:33;-2.40;99.90
20973;DHT22;10645;52.370;13.314;2024-03-06T03:39:59;-2.30;99.90
20973;DHT22;10645;52.370;13.314;2024-03-06T03:42:26;-2.10;99.90
20973;DHT22;10645;52.370;13.314;2024-03-06T03:44:52;-2.00;99.90
20973;DHT22;10645;52.370;13.314;2024-03-06T03:47:18;-1.80;99.90
20973;DHT22;10645;52.370;13.314;2024-03-06T03:49:45;-1.80;99.90
20973;DHT22;10645;52.370;13.314;2024-03-06T03:52:11;-1.80;99.90
20973;DHT22;10645;52.370;13.314;2024-03-06T03:54:38;-1.90;99.90
20973;DHT22;10645;52.370;13.314;2024-03-06T03:57:04;-2.10;99.90
20973;DHT22;10645;52.370;13.314;2024-03-06T03:59:30;-2.10;99.90
20973;DHT22;10645;52.370;13.314;2024-03-06T04:01:56;-2.20;99.90
20973;DHT22;10645;52.370;13.314;2024-03-06T04:04:23;-2.40;99.90
20973;DHT22;10645;52.370;13.314;2024-03-06T04:06:49;-2.40;99.90
20973;DHT22;10645;52.370;13.314;2024-03-06T04:09:15;-2.50;99.90
20973;DHT22;10645;52.370;13.314;2024-03-06T04:11:41;-2.50;99.90
20973;DHT22;10645;52.370;13.314;2024-03-06T04:14:08;-2.60;99.90
20973;DHT22;10645;52.370;13.314;2024-03-06T04:16:35;-2.50;99.90
20973;DHT22;10645;52.370;13.314;2024-03-06T04:19:01;-2.60;99.90
20973;DHT22;10645;52.370;13.314;2024-03-06T04:21:28;-2.60;99.90
20973;DHT22;10645;52.370;13.314;2024-03-06T04:23:54;-2.60;99.90
20973;DHT22;10645;52.370;13.314;2024-03-06T04:26:20;-2.60;99.90
20973;DHT22;10645;52.370;13.314;2024-03-06T04:28:46;-2.50;99.90
20973;DHT22;10645;52.370;13.314;2024-03-06T04:31:12;-2.40;99.90
20973;DHT22;10645;52.370;13.314;2024-03-06T04:33:41;-2.40;99.90
20973;DHT22;10645;52.370;13.314;2024-03-06T04:36:07;-2.20;99.90
20973;DHT22;10645;52.370;13.314;2024-03-06T04:38:34;-2.10;99.90
20973;DHT22;10645;52.370;13.314;2024-03-06T04:41:00;-2.00;99.90
20973;DHT22;10645;52.370;13.314;2024-03-06T04:43:26;-1.90;99.90
20973;DHT22;10645;52.370;13.314;2024-03-06T04:45:52;-1.90;99.90
20973;DHT22;10645;52.370;13.314;2024-03-06T04:48:18;-2.00;99.90
20973;DHT22;10645;52.370;13.314;2024-03-06T04:50:44;-2.10;99.90
20973;DHT22;10645;52.370;13.314;2024-03-06T04:53:11;-2.20;99.90
20973;DHT22;10645;52.370;13.314;2024-03-06T04:55:38;-2.20;99.90
20973;DHT22;10645;52.370;13.314;2024-03-06T04:58:04;-2.10;99.90
20973;DHT22;10645;52.370;13.314;2024-03-06T05:00:30;-2.10;99.90
20973;DHT22;10645;52.370;13.314;2024-03-06T05:02:57;-2.00;99.90
20973;DHT22;10645;52.370;13.314;2024-03-06T05:05:23;-1.90;99.90
20973;DHT22;10645;52.370;13.314;2024-03-06T05:07:50;-1.80;99.90
20973;DHT22;10645;52.370;13.314;2024-03-06T05:10:17;-1.80;99.90
20973;DHT22;10645;52.370;13.314;2024-03-06T05:12:43;-1.80;99.90
20973;DHT22;10645;52.370;13.314;2024-03-06T05:15:10;-1.90;99.90
20973;DHT22;10645;52.370;13.314;2024-03-06T05:17:36;-2.00;99.90
20973;DHT22;10645;52.370;13.314;2024-03-06T05:20:03;-2.00;99.90
20973;DHT22;10645;52.370;13.314;2024-03-06T05:22:31;-2.10;99.90
20973;DHT22;10645;52.370;13.314;2024-03-06T05:24:58;-2.10;99.90
20973;DHT22;10645;52.370;13.314;2024-03-06T05:27:27;-2.20;99.90
20973;DHT22;10645;52.370;13.314;2024-03-06T05:29:53;-2.20;99.90
20973;DHT22;10645;52.370;13.314;2024-03-06T05:32:20;-2.30;99.90
20973;DHT22;10645;52.370;13.314;2024-03-06T05:34:46;-2.30;99.90
20973;DHT22;10645;52.370;13.314;2024-03-06T05:37:12;-2.30;99.90
20973;DHT22;10645;52.370;13.314;2024-03-06T05:39:39;-2.30;99.90
20973;DHT22;10645;52.370;13.314;2024-03-06T05:42:08;-2.30;99.90
20973;DHT22;10645;52.370;13.314;2024-03-06T05:44:34;-2.30;99.90
20973;DHT22;10645;52.370;13.314;2024-03-06T05:47:01;-2.40;99.90
20973;DHT22;10645;52.370;13.314;2024-03-06T05:49:29;-2.50;99.90
20973;DHT22;10645;52.370;13.314;2024-03-06T05:51:55;-2.50;99.90
20973;DHT22;10645;52.370;13.314;2024-03-06T05:54:22;-2.60;99.90
20973;DHT22;10645;52.370;13.314;2024-03-06T05:56:49;-2.60;99.90
20973;DHT22;10645;52.370;13.314;2024-03-06T05:59:18;-2.60;99.90
20973;DHT22;10645;52.370;13.314;2024-03-06T06:01:44;-2.60;99.90
20973;DHT22;10645;52.370;13.314;2024-03-06T06:04:14;-2.70;99.90
20973;DHT22;10645;52.370;13.314;2024-03-06T06:06:40;-2.70;99.90
20973;DHT22;10645;52.370;13.314;2024-03-06T06:09:06;-2.70;99.90
20973;DHT22;10645;52.370;13.314;2024-03-06T06:11:33;-2.70;99.90
20973;DHT22;10645;52.370;13.314;2024-03-06T06:13:59;-2.60;99.90
20973;DHT22;10645;52.370;13.314;2024-03-06T06:16:26;-2.60;99.90
20973;DHT22;10645;52.370;13.314;2024-03-06T06:18:52;-2.60;99.90
20973;DHT22;10645;52.370;13.314;2024-03-06T06:21:18;-2.50;99.90
20973;DHT22;10645;52.370;13.314;2024-03-06T06:23:44;-2.50;99.90
20973;DHT22;10645;52.370;13.314;2024-03-06T06:26:10;-2.40;99.90
20973;DHT22;10645;52.370;13.314;2024-03-06T06:28:37;-2.30;99.90
20973;DHT22;10645;52.370;13.314;2024-03-06T06:31:04;-2.30;99.90
20973;DHT22;10645;52.370;13.314;2024-03-06T06:33:30;-2.20;99.90
20973;DHT22;10645;52.370;13.314;2024-03-06T06:35:56;-2.10;99.90
20973;DHT22;10645;52.370;13.314;2024-03-06T06:38:22;-2.00;99.90
20973;DHT22;10645;52.370;13.314;2024-03-06T06:40:48;-1.90;99.90
20973;DHT22;10645;52.370;13.314;2024-03-06T06:43:14;-1.70;99.90
20973;DHT22;10645;52.370;13.314;2024-03-06T06:45:41;-1.50;99.90
20973;DHT22;10645;52.370;13.314;2024-03-06T06:48:07;-1.30;99.90
20973;DHT22;10645;52.370;13.314;2024-03-06T06:50:35;-1.10;99.90
20973;DHT22;10645;52.370;13.314;2024-03-06T06:53:01;-0.90;99.90
20973;DHT22;10645;52.370;13.314;2024-03-06T06:55:27;-0.80;99.90
20973;DHT22;10645;52.370;13.314;2024-03-06T06:57:53;-0.70;99.90
20973;DHT22;10645;52.370;13.314;2024-03-06T07:00:20;-0.50;99.90
20973;DHT22;10645;52.370;13.314;2024-03-06T07:02:48;-0.40;99.90
20973;DHT22;10645;52.370;13.314;2024-03-06T07:05:15;-0.20;99.90
20973;DHT22;10645;52.370;13.314;2024-03-06T07:07:41;0.00;99.90
20973;DHT22;10645;52.370;13.314;2024-03-06T07:10:07;0.10;99.90
20973;DHT22;10645;52.370;13.314;2024-03-06T07:12:35;0.20;99.90
20973;DHT22;10645;52.370;13.314;2024-03-06T07:15:01;0.30;99.90
20973;DHT22;10645;52.370;13.314;2024-03-06T07:17:28;0.50;99.90
20973;DHT22;10645;52.370;13.314;2024-03-06T07:19:54;0.60;99.90
20973;DHT22;10645;52.370;13.314;2024-03-06T07:22:20;0.70;99.90
20973;DHT22;10645;52.370;13.314;2024-03-06T07:24:46;0.90;99.90
20973;DHT22;10645;52.370;13.314;2024-03-06T07:27:12;1.00;99.90
20973;DHT22;10645;52.370;13.314;2024-03-06T07:29:39;1.10;99.90
20973;DHT22;10645;52.370;13.314;2024-03-06T07:32:05;1.30;99.90
20973;DHT22;10645;52.370;13.314;2024-03-06T07:34:31;1.40;99.90
20973;DHT22;10645;52.370;13.314;2024-03-06T07:36:58;1.50;99.90
20973;DHT22;10645;52.370;13.314;2024-03-06T07:39:25;1.60;99.90
20973;DHT22;10645;52.370;13.314;2024-03-06T07:41:52;1.70;99.90
20973;DHT22;10645;52.370;13.314;2024-03-06T07:44:18;1.80;99.90
20973;DHT22;10645;52.370;13.314;2024-03-06T07:46:44;1.90;99.90
20973;DHT22;10645;52.370;13.314;2024-03-06T07:49:10;2.00;99.90
20973;DHT22;10645;52.370;13.314;2024-03-06T07:51:36;2.10;99.90
20973;DHT22;10645;52.370;13.314;2024-03-06T07:54:02;2.20;99.90
20973;DHT22;10645;52.370;13.314;2024-03-06T07:56:30;2.30;99.90
20973;DHT22;10645;52.370;13.314;2024-03-06T07:58:56;2.30;99.90
20973;DHT22;10645;52.370;13.314;2024-03-06T08:01:23;2.40;99.90
20973;DHT22;10645;52.370;13.314;2024-03-06T08:03:49;2.50;99.90
20973;DHT22;10645;52.370;13.314;2024-03-06T08:06:15;2.70;99.90
20973;DHT22;10645;52.370;13.314;2024-03-06T08:08:45;2.80;99.90
20973;DHT22;10645;52.370;13.314;2024-03-06T08:11:11;2.90;99.90
20973;DHT22;10645;52.370;13.314;2024-03-06T08:13:37;3.00;99.90
20973;DHT22;10645;52.370;13.314;2024-03-06T08:16:05;3.10;99.90
20973;DHT22;10645;52.370;13.314;2024-03-06T08:18:32;3.20;99.90
20973;DHT22;10645;52.370;13.314;2024-03-06T08:20:59;3.20;99.90
20973;DHT22;10645;52.370;13.314;2024-03-06T08:23:25;3.30;99.90
20973;DHT22;10645;52.370;13.314;2024-03-06T08:25:51;3.20;99.90
20973;DHT22;10645;52.370;13.314;2024-03-06T08:28:18;3.30;99.90
20973;DHT22;10645;52.370;13.314;2024-03-06T08:30:44;3.50;99.90
20973;DHT22;10645;52.370;13.314;2024-03-06T08:33:11;3.60;99.90
20973;DHT22;10645;52.370;13.314;2024-03-06T08:35:38;3.70;99.90
20973;DHT22;10645;52.370;13.314;2024-03-06T08:38:04;3.80;99.90
20973;DHT22;10645;52.370;13.314;2024-03-06T08:40:30;3.90;99.90
20973;DHT22;10645;52.370;13.314;2024-03-06T08:42:56;4.10;99.90
20973;DHT22;10645;52.370;13.314;2024-03-06T08:45:22;4.20;99.90
20973;DHT22;10645;52.370;13.314;2024-03-06T08:47:51;4.40;99.90
20973;DHT22;10645;52.370;13.314;2024-03-06T08:50:20;4.40;99.90
20973;DHT22;10645;52.370;13.314;2024-03-06T08:52:46;4.60;99.90
20973;DHT22;10645;52.370;13.314;2024-03-06T08:55:12;4.80;99.90
20973;DHT22;10645;52.370;13.314;2024-03-06T08:57:39;4.90;99.90
20973;DHT22;10645;52.370;13.314;2024-03-06T09:00:07;5.00;99.90
20973;DHT22;10645;52.370;13.314;2024-03-06T09:02:37;5.20;99.90
20973;DHT22;10645;52.370;13.314;2024-03-06T09:05:07;5.30;99.90
20973;DHT22;10645;52.370;13.314;2024-03-06T09:07:34;5.50;99.90
20973;DHT22;10645;52.370;13.314;2024-03-06T09:10:04;5.70;99.90
20973;DHT22;10645;52.370;13.314;2024-03-06T09:12:31;5.70;99.90
20973;DHT22;10645;52.370;13.314;2024-03-06T09:14:58;5.80;99.90
20973;DHT22;10645;52.370;13.314;2024-03-06T09:17:26;5.90;99.90
20973;DHT22;10645;52.370;13.314;2024-03-06T09:19:53;6.00;99.90
20973;DHT22;10645;52.370;13.314;2024-03-06T09:22:19;6.20;99.90
20973;DHT22;10645;52.370;13.314;2024-03-06T09:24:45;6.30;99.90
20973;DHT22;10645;52.370;13.314;2024-03-06T09:27:12;6.40;99.90
20973;DHT22;10645;52.370;13.314;2024-03-06T09:29:40;6.60;99.90
20973;DHT22;10645;52.370;13.314;2024-03-06T09:32:06;6.60;99.90
20973;DHT22;10645;52.370;13.314;2024-03-06T09:34:32;6.60;99.90
20973;DHT22;10645;52.370;13.314;2024-03-06T09:36:59;6.60;99.90
20973;DHT22;10645;52.370;13.314;2024-03-06T09:39:25;6.30;99.90
20973;DHT22;10645;52.370;13.314;2024-03-06T09:41:51;6.50;99.90
20973;DHT22;10645;52.370;13.314;2024-03-06T09:44:18;6.80;99.90
20973;DHT22;10645;52.370;13.314;2024-03-06T09:46:45;7.00;99.90
20973;DHT22;10645;52.370;13.314;2024-03-06T09:49:19;7.10;99.90
20973;DHT22;10645;52.370;13.314;2024-03-06T09:51:46;7.20;99.90
20973;DHT22;10645;52.370;13.314;2024-03-06T09:54:14;7.40;99.90
20973;DHT22;10645;52.370;13.314;2024-03-06T09:56:43;7.40;99.90
20973;DHT22;10645;52.370;13.314;2024-03-06T09:59:11;7.50;99.90
20973;DHT22;10645;52.370;13.314;2024-03-06T10:01:55;7.40;99.90
20973;DHT22;10645;52.370;13.314;2024-03-06T10:04:25;7.60;99.90
20973;DHT22;10645;52.370;13.314;2024-03-06T10:06:58;7.60;99.90
20973;DHT22;10645;52.370;13.314;2024-03-06T10:09:26;7.40;99.90
20973;DHT22;10645;52.370;13.314;2024-03-06T10:11:52;7.60;99.90
20973;DHT22;10645;52.370;13.314;2024-03-06T10:14:19;7.70;99.90
20973;DHT22;10645;52.370;13.314;2024-03-06T10:16:56;8.00;99.90
20973;DHT22;10645;52.370;13.314;2024-03-06T10:19:23;8.30;99.90
20973;DHT22;10645;52.370;13.314;2024-03-06T10:21:50;8.30;99.90
20973;DHT22;10645;52.370;13.314;2024-03-06T10:24:21;8.60;99.90
20973;DHT22;10645;52.370;13.314;2024-03-06T10:26:57;8.70;99.90
20973;DHT22;10645;52.370;13.314;2024-03-06T10:29:25;8.60;99.90
20973;DHT22;10645;52.370;13.314;2024-03-06T10:31:53;8.40;99.90
20973;DHT22;10645;52.370;13.314;2024-03-06T10:34:21;8.10;99.90
20973;DHT22;10645;52.370;13.314;2024-03-06T10:36:58;7.80;99.90
20973;DHT22;10645;52.370;13.314;2024-03-06T10:39:25;7.70;99.90
20973;DHT22;10645;52.370;13.314;2024-03-06T10:41:56;7.70;99.90
20973;DHT22;10645;52.370;13.314;2024-03-06T10:44:24;7.80;99.90
20973;DHT22;10645;52.370;13.314;2024-03-06T10:47:02;7.70;99.90
20973;DHT22;10645;52.370;13.314;2024-03-06T10:49:30;8.00;99.90
20973;DHT22;10645;52.370;13.314;2024-03-06T10:52:00;8.30;99.90
20973;DHT22;10645;52.370;13.314;2024-03-06T10:54:33;8.50;99.90
20973;DHT22;10645;52.370;13.314;2024-03-06T10:57:01;8.80;99.90
20973;DHT22;10645;52.370;13.314;2024-03-06T10:59:29;9.10;99.90
20973;DHT22;10645;52.370;13.314;2024-03-06T11:01:56;9.20;99.90
20973;DHT22;10645;52.370;13.314;2024-03-06T11:04:28;9.50;99.90
20973;DHT22;10645;52.370;13.314;2024-03-06T11:06:55;9.40;99.90
20973;DHT22;10645;52.370;13.314;2024-03-06T11:09:22;9.60;99.90
20973;DHT22;10645;52.370;13.314;2024-03-06T11:11:49;9.80;99.90
20973;DHT22;10645;52.370;13.314;2024-03-06T11:14:17;10.00;99.90
20973;DHT22;10645;52.370;13.314;2024-03-06T11:17:05;9.50;99.90
20973;DHT22;10645;52.370;13.314;2024-03-06T11:28:16;7.80;99.90
20973;DHT22;10645;52.370;13.314;2024-03-06T11:30:45;7.80;99.90
20973;DHT22;10645;52.370;13.314;2024-03-06T11:33:14;7.90;99.90
20973;DHT22;10645;52.370;13.314;2024-03-06T11:36:16;8.40;99.90
20973;DHT22;10645;52.370;13.314;2024-03-06T11:41:12;10.10;99.90
20973;DHT22;10645;52.370;13.314;2024-03-06T11:43:42;10.50;99.90
20973;DHT22;10645;52.370;13.314;2024-03-06T11:46:09;10.80;99.90
20973;DHT22;10645;52.370;13.314;2024-03-06T11:48:36;10.40;99.90
20973;DHT22;10645;52.370;13.314;2024-03-06T11:51:06;10.10;99.90
20973;DHT22;10645;52.370;13.314;2024-03-06T11:53:35;10.00;99.90
20973;DHT22;10645;52.370;13.314;2024-03-06T11:56:07;9.80;99.90
20973;DHT22;10645;52.370;13.314;2024-03-06T11:58:37;9.50;99.90
20973;DHT22;10645;52.370;13.314;2024-03-06T12:01:04;9.30;99.90
20973;DHT22;10645;52.370;13.314;2024-03-06T12:03:33;9.10;99.90
20973;DHT22;10645;52.370;13.314;2024-03-06T12:05:59;8.80;99.90
20973;DHT22;10645;52.370;13.314;2024-03-06T12:08:25;8.60;99.90
20973;DHT22;10645;52.370;13.314;2024-03-06T12:10:52;8.70;99.90
20973;DHT22;10645;52.370;13.314;2024-03-06T12:13:21;9.30;99.90
20973;DHT22;10645;52.370;13.314;2024-03-06T12:15:47;9.40;99.90
20973;DHT22;10645;52.370;13.314;2024-03-06T12:18:13;9.40;99.90
20973;DHT22;10645;52.370;13.314;2024-03-06T12:20:42;9.10;99.90
20973;DHT22;10645;52.370;13.314;2024-03-06T12:23:21;8.70;99.90
20973;DHT22;10645;52.370;13.314;2024-03-06T12:25:49;8.50;99.90
20973;DHT22;10645;52.370;13.314;2024-03-06T12:28:15;8.20;99.90
20973;DHT22;10645;52.370;13.314;2024-03-06T12:30:42;8.00;99.90
20973;DHT22;10645;52.370;13.314;2024-03-06T12:33:10;8.10;99.90
20973;DHT22;10645;52.370;13.314;2024-03-06T12:35:40;8.20;99.90
20973;DHT22;10645;52.370;13.314;2024-03-06T12:38:16;8.60;99.90
20973;DHT22;10645;52.370;13.314;2024-03-06T12:40:42;9.10;99.90
20973;DHT22;10645;52.370;13.314;2024-03-06T12:43:09;9.20;99.90
20973;DHT22;10645;52.370;13.314;2024-03-06T12:45:36;9.50;99.90
20973;DHT22;10645;52.370;13.314;2024-03-06T12:48:03;9.60;99.90
20973;DHT22;10645;52.370;13.314;2024-03-06T12:50:31;9.40;99.90
20973;DHT22;10645;52.370;13.314;2024-03-06T12:52:57;9.00;99.90
20973;DHT22;10645;52.370;13.314;2024-03-06T12:55:23;8.70;99.90
20973;DHT22;10645;52.370;13.314;2024-03-06T12:57:51;8.50;99.90
20973;DHT22;10645;52.370;13.314;2024-03-06T13:00:17;8.30;99.90
20973;DHT22;10645;52.370;13.314;2024-03-06T13:02:45;8.20;99.90
20973;DHT22;10645;52.370;13.314;2024-03-06T13:05:11;8.20;99.90
20973;DHT22;10645;52.370;13.314;2024-03-06T13:07:39;8.40;99.90
20973;DHT22;10645;52.370;13.314;2024-03-06T13:10:07;8.50;99.90
20973;DHT22;10645;52.370;13.314;2024-03-06T13:12:39;8.70;99.90
20973;DHT22;10645;52.370;13.314;2024-03-06T13:15:06;8.90;99.90
20973;DHT22;10645;52.370;13.314;2024-03-06T13:17:35;9.10;99.90
20973;DHT22;10645;52.370;13.314;2024-03-06T13:20:01;9.40;99.90
20973;DHT22;10645;52.370;13.314;2024-03-06T13:22:28;9.30;99.90
20973;DHT22;10645;52.370;13.314;2024-03-06T13:24:54;9.30;99.90
20973;DHT22;10645;52.370;13.314;2024-03-06T13:27:20;9.20;99.90
20973;DHT22;10645;52.370;13.314;2024-03-06T13:29:46;9.00;99.90
20973;DHT22;10645;52.370;13.314;2024-03-06T13:32:12;8.80;99.90
20973;DHT22;10645;52.370;13.314;2024-03-06T13:34:38;8.70;99.90
20973;DHT22;10645;52.370;13.314;2024-03-06T13:37:04;8.80;99.90
20973;DHT22;10645;52.370;13.314;2024-03-06T13:39:32;9.00;99.90
20973;DHT22;10645;52.370;13.314;2024-03-06T13:41:59;8.90;99.90
20973;DHT22;10645;52.370;13.314;2024-03-06T13:44:25;8.80;99.90
20973;DHT22;10645;52.370;13.314;2024-03-06T13:46:51;8.70;99.90
20973;DHT22;10645;52.370;13.314;2024-03-06T13:52:03;8.70;99.90
20973;DHT22;10645;52.370;13.314;2024-03-06T13:54:31;8.80;99.90
20973;DHT22;10645;52.370;13.314;2024-03-06T13:56:57;8.90;99.90
20973;DHT22;10645;52.370;13.314;2024-03-06T13:59:30;8.90;99.90
20973;DHT22;10645;52.370;13.314;2024-03-06T14:01:56;8.80;99.90
20973;DHT22;10645;52.370;13.314;2024-03-06T14:04:22;8.70;99.90
20973;DHT22;10645;52.370;13.314;2024-03-06T14:06:49;8.50;99.90
20973;DHT22;10645;52.370;13.314;2024-03-06T14:09:16;8.40;99.90
20973;DHT22;10645;52.370;13.314;2024-03-06T14:11:42;8.10;99.90
20973;DHT22;10645;52.370;13.314;2024-03-06T14:14:08;8.10;99.90
20973;DHT22;10645;52.370;13.314;2024-03-06T14:16:34;8.10;99.90
20973;DHT22;10645;52.370;13.314;2024-03-06T14:19:01;8.00;99.90
20973;DHT22;10645;52.370;13.314;2024-03-06T14:21:27;8.00;99.90
20973;DHT22;10645;52.370;13.314;2024-03-06T14:23:53;7.90;99.90
20973;DHT22;10645;52.370;13.314;2024-03-06T14:26:19;7.80;99.90
20973;DHT22;10645;52.370;13.314;2024-03-06T14:28:45;7.80;99.90
20973;DHT22;10645;52.370;13.314;2024-03-06T14:31:11;7.80;99.90
20973;DHT22;10645;52.370;13.314;2024-03-06T14:33:40;7.70;99.90
20973;DHT22;10645;52.370;13.314;2024-03-06T14:36:07;7.70;99.90
20973;DHT22;10645;52.370;13.314;2024-03-06T14:38:33;7.70;99.90
20973;DHT22;10645;52.370;13.314;2024-03-06T14:40:59;7.70;99.90
20973;DHT22;10645;52.370;13.314;2024-03-06T14:43:25;7.60;99.90
20973;DHT22;10645;52.370;13.314;2024-03-06T14:45:51;7.70;99.90
20973;DHT22;10645;52.370;13.314;2024-03-06T14:48:17;7.50;99.90
20973;DHT22;10645;52.370;13.314;2024-03-06T14:50:43;7.50;99.90
20973;DHT22;10645;52.370;13.314;2024-03-06T14:53:09;7.50;99.90
20973;DHT22;10645;52.370;13.314;2024-03-06T14:55:36;7.40;99.90
20973;DHT22;10645;52.370;13.314;2024-03-06T14:58:02;7.40;99.90
20973;DHT22;10645;52.370;13.314;2024-03-06T15:00:28;7.40;99.90
20973;DHT22;10645;52.370;13.314;2024-03-06T15:02:54;7.40;99.90
20973;DHT22;10645;52.370;13.314;2024-03-06T15:05:24;7.50;99.90
20973;DHT22;10645;52.370;13.314;2024-03-06T15:07:50;7.40;99.90
20973;DHT22;10645;52.370;13.314;2024-03-06T15:10:16;7.40;99.90
20973;DHT22;10645;52.370;13.314;2024-03-06T15:12:43;7.50;99.90
20973;DHT22;10645;52.370;13.314;2024-03-06T15:15:10;7.50;99.90
20973;DHT22;10645;52.370;13.314;2024-03-06T15:17:36;7.60;99.90
20973;DHT22;10645;52.370;13.314;2024-03-06T15:20:06;7.60;99.90
20973;DHT22;10645;52.370;13.314;2024-03-06T15:22:35;7.60;99.90
20973;DHT22;10645;52.370;13.314;2024-03-06T15:25:08;7.60;99.90
20973;DHT22;10645;52.370;13.314;2024-03-06T15:27:35;7.70;99.90
20973;DHT22;10645;52.370;13.314;2024-03-06T15:30:06;7.70;99.90
20973;DHT22;10645;52.370;13.314;2024-03-06T15:32:34;7.70;99.90
20973;DHT22;10645;52.370;13.314;2024-03-06T15:35:00;7.70;99.90
20973;DHT22;10645;52.370;13.314;2024-03-06T15:37:26;7.60;99.90